sensor_id;sensor_type;location;lat;lon;timestamp;pressure;altitude;pressure_sealevel;temperature;humidity
56052;BME280;41919;42.648;23.384;2022-09-16T00:01:14;94101.75;;;23.02;43.74
56052;BME280;41919;42.648;23.384;2022-09-16T00:03:40;94089.59;;;22.96;43.81
56052;BME280;41919;42.648;23.384;2022-09-16T00:06:13;94059.28;;;22.92;43.73
56052;BME280;41919;42.648;23.384;2022-09-16T00:08:40;94067.16;;;22.83;43.52
56052;BME280;41919;42.648;23.384;2022-09-16T00:11:07;94056.97;;;22.71;44.15
56052;BME280;41919;42.648;23.384;2022-09-16T00:13:33;94082.13;;;22.79;44.19
56052;BME280;41919;42.648;23.384;2022-09-16T00:15:58;94008.97;;;22.44;43.89
56052;BME280;41919;42.648;23.384;2022-09-16T00:18:24;94019.22;;;22.50;44.03
56052;BME280;41919;42.648;23.384;2022-09-16T00:20:50;94068.84;;;22.93;43.75
56052;BME280;41919;42.648;23.384;2022-09-16T00:23:17;94046.53;;;22.75;43.63
56052;BME280;41919;42.648;23.384;2022-09-16T00:25:43;94022.72;;;22.65;43.14
56052;BME280;41919;42.648;23.384;2022-09-16T00:28:08;94016.94;;;22.77;43.21
56052;BME280;41919;42.648;23.384;2022-09-16T00:30:34;94068.47;;;22.86;43.63
56052;BME280;41919;42.648;23.384;2022-09-16T00:32:59;94085.44;;;22.90;44.01
56052;BME280;41919;42.648;23.384;2022-09-16T00:35:25;94079.56;;;22.74;44.42
56052;BME280;41919;42.648;23.384;2022-09-16T00:37:50;94082.06;;;22.84;44.30
56052;BME280;41919;42.648;23.384;2022-09-16T00:40:16;94079.50;;;22.60;44.48
56052;BME280;41919;42.648;23.384;2022-09-16T00:42:41;94072.69;;;22.54;44.72
56052;BME280;41919;42.648;23.384;2022-09-16T00:45:22;94081.69;;;22.58;44.70
56052;BME280;41919;42.648;23.384;2022-09-16T00:48:04;94040.19;;;22.38;44.42
56052;BME280;41919;42.648;23.384;2022-09-16T00:50:40;94092.88;;;22.74;44.47
56052;BME280;41919;42.648;23.384;2022-09-16T00:53:13;94086.47;;;22.75;44.38
56052;BME280;41919;42.648;23.384;2022-09-16T00:55:41;93981.41;;;22.16;44.53
56052;BME280;41919;42.648;23.384;2022-09-16T00:58:20;94036.59;;;22.48;44.29
56052;BME280;41919;42.648;23.384;2022-09-16T01:00:48;94046.84;;;22.55;44.10
56052;BME280;41919;42.648;23.384;2022-09-16T01:03:14;94039.16;;;22.53;43.99
56052;BME280;41919;42.648;23.384;2022-09-16T01:05:40;94053.16;;;22.59;43.87
56052;BME280;41919;42.648;23.384;2022-09-16T01:08:05;94064.84;;;22.63;44.05
56052;BME280;41919;42.648;23.384;2022-09-16T01:10:31;94097.84;;;22.81;43.95
56052;BME280;41919;42.648;23.384;2022-09-16T01:13:01;94055.53;;;22.60;43.92
56052;BME280;41919;42.648;23.384;2022-09-16T01:15:37;94083.03;;;22.75;44.29
56052;BME280;41919;42.648;23.384;2022-09-16T01:21:47;94071.63;;;22.17;45.52
56052;BME280;41919;42.648;23.384;2022-09-16T01:46:18;94078.19;;;22.44;45.58
56052;BME280;41919;42.648;23.384;2022-09-16T01:51:23;94107.78;;;22.18;46.15
56052;BME280;41919;42.648;23.384;2022-09-16T01:56:40;94078.09;;;22.30;45.89
56052;BME280;41919;42.648;23.384;2022-09-16T01:59:12;94092.19;;;22.11;46.32
56052;BME280;41919;42.648;23.384;2022-09-16T02:01:51;94060.78;;;21.70;46.98
56052;BME280;41919;42.648;23.384;2022-09-16T02:04:31;94018.59;;;21.64;47.27
56052;BME280;41919;42.648;23.384;2022-09-16T02:07:00;94084.81;;;22.03;46.62
56052;BME280;41919;42.648;23.384;2022-09-16T02:09:31;94037.94;;;21.69;47.24
56052;BME280;41919;42.648;23.384;2022-09-16T02:12:00;94028.22;;;21.60;47.19
56052;BME280;41919;42.648;23.384;2022-09-16T02:14:32;93987.88;;;21.28;47.29
56052;BME280;41919;42.648;23.384;2022-09-16T02:17:02;94073.56;;;21.68;47.49
56052;BME280;41919;42.648;23.384;2022-09-16T02:19:36;94074.03;;;21.76;47.50
56052;BME280;41919;42.648;23.384;2022-09-16T02:22:07;94071.03;;;21.82;47.25
56052;BME280;41919;42.648;23.384;2022-09-16T02:24:34;94014.22;;;21.54;46.89
56052;BME280;41919;42.648;23.384;2022-09-16T02:27:03;94075.78;;;22.04;47.20
56052;BME280;41919;42.648;23.384;2022-09-16T02:29:42;94070.44;;;21.85;48.10
56052;BME280;41919;42.648;23.384;2022-09-16T02:32:09;94075.06;;;21.56;48.62
56052;BME280;41919;42.648;23.384;2022-09-16T02:34:38;94043.59;;;21.14;49.27
56052;BME280;41919;42.648;23.384;2022-09-16T02:37:08;94075.16;;;21.45;48.76
56052;BME280;41919;42.648;23.384;2022-09-16T02:39:38;94077.88;;;21.40;48.67
56052;BME280;41919;42.648;23.384;2022-09-16T02:42:05;94086.91;;;21.44;49.16
56052;BME280;41919;42.648;23.384;2022-09-16T02:44:31;94026.13;;;21.08;48.86
56052;BME280;41919;42.648;23.384;2022-09-16T02:47:04;94032.06;;;21.00;48.85
56052;BME280;41919;42.648;23.384;2022-09-16T02:57:29;94063.78;;;21.40;48.29
56052;BME280;41919;42.648;23.384;2022-09-16T02:59:55;94087.88;;;21.72;47.92
56052;BME280;41919;42.648;23.384;2022-09-16T03:02:21;94099.56;;;21.77;47.88
56052;BME280;41919;42.648;23.384;2022-09-16T03:04:47;94081.63;;;21.63;47.83
56052;BME280;41919;42.648;23.384;2022-09-16T03:07:13;94060.22;;;21.49;47.84
56052;BME280;41919;42.648;23.384;2022-09-16T03:09:42;94057.75;;;21.58;47.55
56052;BME280;41919;42.648;23.384;2022-09-16T03:12:31;94112.84;;;21.96;47.30
56052;BME280;41919;42.648;23.384;2022-09-16T03:15:16;94072.09;;;21.81;47.34
56052;BME280;41919;42.648;23.384;2022-09-16T03:20:50;94074.50;;;22.02;47.04
56052;BME280;41919;42.648;23.384;2022-09-16T03:31:35;94122.06;;;22.46;46.50
56052;BME280;41919;42.648;23.384;2022-09-16T03:34:12;94127.66;;;22.45;46.28
56052;BME280;41919;42.648;23.384;2022-09-16T03:36:45;94101.25;;;22.48;46.80
56052;BME280;41919;42.648;23.384;2022-09-16T03:39:12;94104.16;;;22.52;45.72
56052;BME280;41919;42.648;23.384;2022-09-16T03:41:38;94112.47;;;22.45;46.71
56052;BME280;41919;42.648;23.384;2022-09-16T03:44:04;94044.50;;;21.96;47.35
56052;BME280;41919;42.648;23.384;2022-09-16T03:46:29;94057.00;;;21.96;46.65
56052;BME280;41919;42.648;23.384;2022-09-16T03:48:55;94094.28;;;22.34;46.65
56052;BME280;41919;42.648;23.384;2022-09-16T03:51:22;94031.91;;;22.02;46.41
56052;BME280;41919;42.648;23.384;2022-09-16T03:53:49;94032.66;;;22.07;46.31
56052;BME280;41919;42.648;23.384;2022-09-16T03:56:14;94095.78;;;22.21;47.50
56052;BME280;41919;42.648;23.384;2022-09-16T03:58:40;94106.91;;;22.04;48.37
56052;BME280;41919;42.648;23.384;2022-09-16T04:01:05;94050.19;;;21.46;48.84
56052;BME280;41919;42.648;23.384;2022-09-16T04:03:31;94052.56;;;21.67;48.94
56052;BME280;41919;42.648;23.384;2022-09-16T04:05:56;94081.13;;;21.80;49.20
56052;BME280;41919;42.648;23.384;2022-09-16T04:08:22;94092.88;;;21.79;49.19
56052;BME280;41919;42.648;23.384;2022-09-16T04:11:17;94121.09;;;21.75;49.88
56052;BME280;41919;42.648;23.384;2022-09-16T04:13:43;94121.56;;;21.82;49.85
56052;BME280;41919;42.648;23.384;2022-09-16T04:16:08;94068.03;;;21.41;49.74
56052;BME280;41919;42.648;23.384;2022-09-16T04:18:34;94131.47;;;21.77;49.75
56052;BME280;41919;42.648;23.384;2022-09-16T04:21:01;94115.34;;;21.68;49.70
56052;BME280;41919;42.648;23.384;2022-09-16T04:23:28;94126.44;;;21.75;50.07
56052;BME280;41919;42.648;23.384;2022-09-16T04:26:00;94112.84;;;21.52;49.91
56052;BME280;41919;42.648;23.384;2022-09-16T04:28:26;94140.31;;;21.43;50.60
56052;BME280;41919;42.648;23.384;2022-09-16T04:30:52;94097.66;;;21.29;50.56
56052;BME280;41919;42.648;23.384;2022-09-16T04:33:18;94112.84;;;21.52;50.36
56052;BME280;41919;42.648;23.384;2022-09-16T04:35:49;94150.03;;;21.58;50.34
56052;BME280;41919;42.648;23.384;2022-09-16T04:38:18;94117.66;;;21.21;50.78
56052;BME280;41919;42.648;23.384;2022-09-16T04:40:43;94150.63;;;21.49;50.60
56052;BME280;41919;42.648;23.384;2022-09-16T04:43:09;94070.28;;;21.04;50.73
56052;BME280;41919;42.648;23.384;2022-09-16T04:45:34;94079.72;;;21.15;50.50
56052;BME280;41919;42.648;23.384;2022-09-16T04:48:00;94076.69;;;21.27;50.26
56052;BME280;41919;42.648;23.384;2022-09-16T04:50:26;94128.16;;;21.61;50.30
56052;BME280;41919;42.648;23.384;2022-09-16T04:52:51;94085.31;;;21.38;49.99
56052;BME280;41919;42.648;23.384;2022-09-16T04:55:17;94087.84;;;21.53;49.58
56052;BME280;41919;42.648;23.384;2022-09-16T04:57:43;94149.34;;;22.14;49.07
56052;BME280;41919;42.648;23.384;2022-09-16T05:00:09;94088.56;;;21.83;49.27
56052;BME280;41919;42.648;23.384;2022-09-16T05:02:35;94089.94;;;22.00;48.92
56052;BME280;41919;42.648;23.384;2022-09-16T05:05:00;94135.53;;;22.36;48.31
56052;BME280;41919;42.648;23.384;2022-09-16T05:07:27;94154.22;;;22.50;48.03
56052;BME280;41919;42.648;23.384;2022-09-16T05:09:53;94083.81;;;22.18;47.66
56052;BME280;41919;42.648;23.384;2022-09-16T05:12:19;94085.72;;;22.37;47.45
56052;BME280;41919;42.648;23.384;2022-09-16T05:14:44;94090.16;;;22.60;47.33
56052;BME280;41919;42.648;23.384;2022-09-16T05:17:10;94132.44;;;23.00;46.27
56052;BME280;41919;42.648;23.384;2022-09-16T05:19:35;94026.69;;;22.81;46.25
56052;BME280;41919;42.648;23.384;2022-09-16T05:22:01;94138.91;;;24.01;44.77
56052;BME280;41919;42.648;23.384;2022-09-16T05:24:33;94134.25;;;24.20;43.68
56052;BME280;41919;42.648;23.384;2022-09-16T05:27:00;94074.03;;;24.14;43.00
56052;BME280;41919;42.648;23.384;2022-09-16T05:29:26;94112.19;;;24.88;42.48
56052;BME280;41919;42.648;23.384;2022-09-16T05:31:51;94108.94;;;25.22;41.44
56052;BME280;41919;42.648;23.384;2022-09-16T05:34:19;93990.91;;;24.75;40.69
56052;BME280;41919;42.648;23.384;2022-09-16T05:36:46;94098.25;;;25.93;39.46
56052;BME280;41919;42.648;23.384;2022-09-16T05:39:14;94060.97;;;26.49;38.48
56052;BME280;41919;42.648;23.384;2022-09-16T05:41:43;94061.66;;;27.28;37.06
56052;BME280;41919;42.648;23.384;2022-09-16T05:44:08;94059.19;;;27.53;36.16
56052;BME280;41919;42.648;23.384;2022-09-16T05:46:34;94060.97;;;27.40;34.96
56052;BME280;41919;42.648;23.384;2022-09-16T05:49:00;94102.84;;;27.15;35.34
56052;BME280;41919;42.648;23.384;2022-09-16T05:51:25;94103.06;;;26.75;35.62
56052;BME280;41919;42.648;23.384;2022-09-16T05:53:52;94096.47;;;27.46;35.06
56052;BME280;41919;42.648;23.384;2022-09-16T05:56:22;94071.78;;;27.61;34.85
56052;BME280;41919;42.648;23.384;2022-09-16T05:58:51;94115.72;;;28.25;33.58
56052;BME280;41919;42.648;23.384;2022-09-16T06:01:19;94066.38;;;28.00;33.87
56052;BME280;41919;42.648;23.384;2022-09-16T06:03:47;94058.16;;;28.26;32.79
56052;BME280;41919;42.648;23.384;2022-09-16T06:06:30;94060.22;;;28.83;32.38
56052;BME280;41919;42.648;23.384;2022-09-16T06:09:04;94091.34;;;29.39;31.61
56052;BME280;41919;42.648;23.384;2022-09-16T06:11:31;94055.34;;;29.31;30.91
56052;BME280;41919;42.648;23.384;2022-09-16T06:13:59;94105.63;;;30.25;30.52
56052;BME280;41919;42.648;23.384;2022-09-16T06:16:26;94111.00;;;31.35;28.08
56052;BME280;41919;42.648;23.384;2022-09-16T06:18:54;94057.22;;;31.42;27.21
56052;BME280;41919;42.648;23.384;2022-09-16T06:21:20;94065.47;;;31.81;26.40
56052;BME280;41919;42.648;23.384;2022-09-16T06:23:46;94047.00;;;32.34;26.61
56052;BME280;41919;42.648;23.384;2022-09-16T06:26:14;94096.31;;;32.28;27.27
56052;BME280;41919;42.648;23.384;2022-09-16T06:28:40;94091.19;;;31.75;26.58
56052;BME280;41919;42.648;23.384;2022-09-16T06:31:17;94095.59;;;30.51;28.30
56052;BME280;41919;42.648;23.384;2022-09-16T06:33:43;94093.47;;;30.84;28.26
56052;BME280;41919;42.648;23.384;2022-09-16T06:36:11;94088.66;;;31.50;27.90
56052;BME280;41919;42.648;23.384;2022-09-16T06:38:38;94055.19;;;31.39;27.08
56052;BME280;41919;42.648;23.384;2022-09-16T06:41:06;94058.84;;;31.15;27.00
56052;BME280;41919;42.648;23.384;2022-09-16T06:43:32;94097.31;;;31.88;27.29
56052;BME280;41919;42.648;23.384;2022-09-16T06:46:04;94043.53;;;31.82;26.29
56052;BME280;41919;42.648;23.384;2022-09-16T06:48:33;94108.91;;;32.39;25.67
56052;BME280;41919;42.648;23.384;2022-09-16T06:51:00;94069.41;;;33.32;24.97
56052;BME280;41919;42.648;23.384;2022-09-16T06:53:26;94099.50;;;34.20;23.52
56052;BME280;41919;42.648;23.384;2022-09-16T06:55:52;94101.00;;;35.42;22.28
56052;BME280;41919;42.648;23.384;2022-09-16T06:58:17;94062.16;;;35.82;21.46
56052;BME280;41919;42.648;23.384;2022-09-16T07:00:43;94090.03;;;36.97;20.75
56052;BME280;41919;42.648;23.384;2022-09-16T07:03:08;94067.72;;;36.59;20.06
56052;BME280;41919;42.648;23.384;2022-09-16T07:05:33;94063.50;;;36.76;19.85
56052;BME280;41919;42.648;23.384;2022-09-16T07:07:59;94094.13;;;37.61;20.01
56052;BME280;41919;42.648;23.384;2022-09-16T07:10:24;94104.53;;;38.77;18.43
56052;BME280;41919;42.648;23.384;2022-09-16T07:12:50;94099.31;;;39.19;18.28
56052;BME280;41919;42.648;23.384;2022-09-16T07:15:16;94067.41;;;39.65;17.15
56052;BME280;41919;42.648;23.384;2022-09-16T07:17:41;94103.28;;;40.23;16.58
56052;BME280;41919;42.648;23.384;2022-09-16T07:20:07;94082.38;;;40.81;15.55
56052;BME280;41919;42.648;23.384;2022-09-16T07:22:33;94105.53;;;41.38;15.83
56052;BME280;41919;42.648;23.384;2022-09-16T07:24:58;94069.59;;;41.02;15.59
56052;BME280;41919;42.648;23.384;2022-09-16T07:27:23;94107.94;;;41.02;15.92
56052;BME280;41919;42.648;23.384;2022-09-16T07:29:49;94104.75;;;39.86;17.11
56052;BME280;41919;42.648;23.384;2022-09-16T07:32:14;94097.25;;;40.42;16.66
56052;BME280;41919;42.648;23.384;2022-09-16T07:34:40;94058.22;;;41.03;15.56
56052;BME280;41919;42.648;23.384;2022-09-16T07:37:05;94099.84;;;41.80;14.95
56052;BME280;41919;42.648;23.384;2022-09-16T07:39:31;94098.28;;;42.06;15.30
56052;BME280;41919;42.648;23.384;2022-09-16T07:41:56;94093.06;;;42.35;14.80
56052;BME280;41919;42.648;23.384;2022-09-16T07:44:22;94075.38;;;42.36;14.84
56052;BME280;41919;42.648;23.384;2022-09-16T07:46:47;94072.06;;;42.48;14.70
56052;BME280;41919;42.648;23.384;2022-09-16T07:49:15;94034.25;;;42.13;14.51
56052;BME280;41919;42.648;23.384;2022-09-16T07:51:42;94038.69;;;41.83;14.86
56052;BME280;41919;42.648;23.384;2022-09-16T07:54:10;94063.13;;;41.19;15.31
56052;BME280;41919;42.648;23.384;2022-09-16T07:56:37;94069.84;;;41.42;15.20
56052;BME280;41919;42.648;23.384;2022-09-16T07:59:04;94076.53;;;41.10;15.70
56052;BME280;41919;42.648;23.384;2022-09-16T08:01:30;94072.56;;;40.84;15.89
56052;BME280;41919;42.648;23.384;2022-09-16T08:03:56;94022.09;;;40.12;16.47
56052;BME280;41919;42.648;23.384;2022-09-16T08:06:24;94069.47;;;40.02;16.48
56052;BME280;41919;42.648;23.384;2022-09-16T08:08:53;94063.94;;;39.57;16.93
56052;BME280;41919;42.648;23.384;2022-09-16T08:11:19;94042.16;;;38.76;18.07
56052;BME280;41919;42.648;23.384;2022-09-16T08:13:45;94065.91;;;38.79;18.09
56052;BME280;41919;42.648;23.384;2022-09-16T08:16:13;94025.13;;;38.29;18.27
56052;BME280;41919;42.648;23.384;2022-09-16T08:18:40;94045.81;;;38.08;18.65
56052;BME280;41919;42.648;23.384;2022-09-16T08:21:15;94063.34;;;37.67;18.89
56052;BME280;41919;42.648;23.384;2022-09-16T08:23:42;94059.06;;;37.88;19.37
56052;BME280;41919;42.648;23.384;2022-09-16T08:26:08;94010.75;;;37.78;18.54
56052;BME280;41919;42.648;23.384;2022-09-16T08:28:36;94015.06;;;37.57;18.67
56052;BME280;41919;42.648;23.384;2022-09-16T08:31:03;94050.44;;;37.18;19.65
56052;BME280;41919;42.648;23.384;2022-09-16T08:33:29;93926.88;;;35.61;20.30
56052;BME280;41919;42.648;23.384;2022-09-16T08:36:02;94042.88;;;36.02;20.58
56052;BME280;41919;42.648;23.384;2022-09-16T08:38:30;94055.78;;;35.64;21.36
56052;BME280;41919;42.648;23.384;2022-09-16T08:41:05;94020.34;;;35.08;21.94
56052;BME280;41919;42.648;23.384;2022-09-16T08:43:42;94038.94;;;34.39;22.47
56052;BME280;41919;42.648;23.384;2022-09-16T08:46:43;93988.00;;;33.48;24.06
56052;BME280;41919;42.648;23.384;2022-09-16T08:51:47;94033.97;;;33.18;24.48
56052;BME280;41919;42.648;23.384;2022-09-16T08:54:31;94019.47;;;33.30;24.18
56052;BME280;41919;42.648;23.384;2022-09-16T08:57:02;93991.31;;;32.92;24.81
56052;BME280;41919;42.648;23.384;2022-09-16T08:59:33;93979.97;;;32.43;25.31
56052;BME280;41919;42.648;23.384;2022-09-16T09:02:17;94033.31;;;32.62;25.96
56052;BME280;41919;42.648;23.384;2022-09-16T09:04:45;94018.84;;;32.35;25.91
56052;BME280;41919;42.648;23.384;2022-09-16T09:07:26;94010.94;;;31.91;27.23
56052;BME280;41919;42.648;23.384;2022-09-16T09:13:15;94025.28;;;31.95;26.23
56052;BME280;41919;42.648;23.384;2022-09-16T09:15:40;94041.47;;;31.76;27.12
56052;BME280;41919;42.648;23.384;2022-09-16T09:18:13;93996.78;;;31.46;28.33
56052;BME280;41919;42.648;23.384;2022-09-16T09:26:48;94048.00;;;30.99;29.00
56052;BME280;41919;42.648;23.384;2022-09-16T09:31:55;94036.50;;;30.58;29.81
56052;BME280;41919;42.648;23.384;2022-09-16T09:40:36;93979.25;;;30.08;30.00
56052;BME280;41919;42.648;23.384;2022-09-16T09:45:39;94021.53;;;30.20;30.40
56052;BME280;41919;42.648;23.384;2022-09-16T09:50:44;94015.63;;;29.89;31.23
56052;BME280;41919;42.648;23.384;2022-09-16T09:55:36;93993.56;;;29.35;31.91
56052;BME280;41919;42.648;23.384;2022-09-16T10:00:46;94036.72;;;29.26;32.57
56052;BME280;41919;42.648;23.384;2022-09-16T10:03:15;94047.47;;;29.13;33.67
56052;BME280;41919;42.648;23.384;2022-09-16T10:05:42;94057.25;;;29.30;34.58
56052;BME280;41919;42.648;23.384;2022-09-16T10:10:51;94073.41;;;29.30;33.44
56052;BME280;41919;42.648;23.384;2022-09-16T10:13:17;94070.66;;;29.18;33.66
56052;BME280;41919;42.648;23.384;2022-09-16T10:15:44;94068.22;;;28.92;34.27
56052;BME280;41919;42.648;23.384;2022-09-16T10:18:25;94074.09;;;28.73;34.16
56052;BME280;41919;42.648;23.384;2022-09-16T10:21:04;94109.06;;;28.73;34.21
56052;BME280;41919;42.648;23.384;2022-09-16T10:23:31;94065.94;;;28.19;35.04
56052;BME280;41919;42.648;23.384;2022-09-16T10:26:20;94163.47;;;28.19;35.91
56052;BME280;41919;42.648;23.384;2022-09-16T10:29:00;94022.13;;;26.90;36.48
56052;BME280;41919;42.648;23.384;2022-09-16T10:31:34;94197.81;;;27.49;40.20
56052;BME280;41919;42.648;23.384;2022-09-16T10:34:03;94226.06;;;26.94;43.76
56052;BME280;41919;42.648;23.384;2022-09-16T10:36:33;94237.69;;;26.14;47.57
56052;BME280;41919;42.648;23.384;2022-09-16T10:39:00;94181.59;;;25.47;48.74
56052;BME280;41919;42.648;23.384;2022-09-16T10:41:32;94237.88;;;25.19;50.70
56052;BME280;41919;42.648;23.384;2022-09-16T10:44:00;94252.19;;;25.00;51.74
56052;BME280;41919;42.648;23.384;2022-09-16T10:46:27;94268.78;;;24.89;52.18
56052;BME280;41919;42.648;23.384;2022-09-16T10:48:58;94264.19;;;24.67;53.14
56052;BME280;41919;42.648;23.384;2022-09-16T10:51:25;94278.53;;;24.57;54.04
56052;BME280;41919;42.648;23.384;2022-09-16T10:54:24;94281.06;;;24.48;55.36
56052;BME280;41919;42.648;23.384;2022-09-16T10:56:52;94212.06;;;23.86;55.74
56052;BME280;41919;42.648;23.384;2022-09-16T10:59:18;94243.69;;;23.93;55.90
56052;BME280;41919;42.648;23.384;2022-09-16T11:15:59;94113.22;;;23.03;56.18
56052;BME280;41919;42.648;23.384;2022-09-16T11:18:45;94162.97;;;23.40;55.90
56052;BME280;41919;42.648;23.384;2022-09-16T11:21:44;94145.28;;;23.58;55.86
56052;BME280;41919;42.648;23.384;2022-09-16T11:29:27;94119.13;;;24.02;50.87
56052;BME280;41919;42.648;23.384;2022-09-16T11:39:45;94082.31;;;24.63;46.63
56052;BME280;41919;42.648;23.384;2022-09-16T11:42:25;94080.69;;;24.76;43.13
56052;BME280;41919;42.648;23.384;2022-09-16T11:45:33;94073.91;;;25.01;44.21
56052;BME280;41919;42.648;23.384;2022-09-16T11:57:06;94068.69;;;26.33;39.85
56052;BME280;41919;42.648;23.384;2022-09-16T11:59:27;94066.94;;;26.29;46.36
56052;BME280;41919;42.648;23.384;2022-09-16T12:02:02;94068.06;;;26.45;44.84
56052;BME280;41919;42.648;23.384;2022-09-16T12:04:41;94058.13;;;26.54;44.55
56052;BME280;41919;42.648;23.384;2022-09-16T12:07:39;94059.88;;;26.68;44.85
56052;BME280;41919;42.648;23.384;2022-09-16T12:12:43;94041.22;;;26.97;41.96
56052;BME280;41919;42.648;23.384;2022-09-16T12:15:25;94048.63;;;27.01;42.23
56052;BME280;41919;42.648;23.384;2022-09-16T12:18:01;94010.06;;;26.75;41.55
56052;BME280;41919;42.648;23.384;2022-09-16T12:20:35;94070.44;;;26.73;41.85
56052;BME280;41919;42.648;23.384;2022-09-16T12:23:23;94065.38;;;26.80;41.26
56052;BME280;41919;42.648;23.384;2022-09-16T12:26:09;94074.38;;;26.58;41.64
56052;BME280;41919;42.648;23.384;2022-09-16T12:28:53;93969.22;;;25.65;43.00
56052;BME280;41919;42.648;23.384;2022-09-16T12:31:41;94052.25;;;26.00;44.78
56052;BME280;41919;42.648;23.384;2022-09-16T12:34:15;94086.34;;;25.68;45.78
56052;BME280;41919;42.648;23.384;2022-09-16T12:36:47;94030.06;;;25.33;46.85
56052;BME280;41919;42.648;23.384;2022-09-16T12:39:13;94078.44;;;25.54;48.14
56052;BME280;41919;42.648;23.384;2022-09-16T13:01:13;94074.34;;;24.72;52.68
56052;BME280;41919;42.648;23.384;2022-09-16T13:03:44;94099.97;;;24.73;51.78
56052;BME280;41919;42.648;23.384;2022-09-16T13:08:47;94140.75;;;25.01;52.39
56052;BME280;41919;42.648;23.384;2022-09-16T13:11:20;94131.75;;;24.97;51.99
56052;BME280;41919;42.648;23.384;2022-09-16T13:13:49;94167.22;;;25.11;51.92
56052;BME280;41919;42.648;23.384;2022-09-16T13:16:32;94177.50;;;24.95;53.85
56052;BME280;41919;42.648;23.384;2022-09-16T13:25:00;94176.59;;;24.50;56.85
56052;BME280;41919;42.648;23.384;2022-09-16T13:27:34;94130.59;;;24.16;57.14
56052;BME280;41919;42.648;23.384;2022-09-16T13:30:34;94191.94;;;24.58;58.11
56052;BME280;41919;42.648;23.384;2022-09-16T13:33:22;94188.78;;;24.42;58.21
56052;BME280;41919;42.648;23.384;2022-09-16T13:35:49;94163.78;;;24.38;58.81
56052;BME280;41919;42.648;23.384;2022-09-16T13:38:19;94170.47;;;24.49;58.41
56052;BME280;41919;42.648;23.384;2022-09-16T13:40:59;94096.81;;;23.98;59.81
56052;BME280;41919;42.648;23.384;2022-09-16T13:43:35;94132.81;;;24.37;59.40
56052;BME280;41919;42.648;23.384;2022-09-16T13:46:05;94124.88;;;24.45;60.03
56052;BME280;41919;42.648;23.384;2022-09-16T13:51:42;94034.50;;;24.53;58.89
56052;BME280;41919;42.648;23.384;2022-09-16T13:54:39;94005.13;;;24.84;58.24
56052;BME280;41919;42.648;23.384;2022-09-16T14:00:04;94019.41;;;25.11;58.43
56052;BME280;41919;42.648;23.384;2022-09-16T14:03:00;94042.03;;;25.04;57.93
56052;BME280;41919;42.648;23.384;2022-09-16T14:08:34;94061.53;;;25.14;57.29
56052;BME280;41919;42.648;23.384;2022-09-16T14:13:53;94080.59;;;25.21;56.58
56052;BME280;41919;42.648;23.384;2022-09-16T14:16:22;93986.94;;;24.63;56.59
56052;BME280;41919;42.648;23.384;2022-09-16T14:18:56;94056.00;;;25.10;54.41
56052;BME280;41919;42.648;23.384;2022-09-16T14:21:24;94072.59;;;25.21;55.36
56052;BME280;41919;42.648;23.384;2022-09-16T14:23:51;94058.97;;;25.00;55.38
56052;BME280;41919;42.648;23.384;2022-09-16T14:26:20;94111.81;;;25.26;55.71
56052;BME280;41919;42.648;23.384;2022-09-16T14:28:46;93995.19;;;24.53;56.07
56052;BME280;41919;42.648;23.384;2022-09-16T14:31:16;94106.25;;;25.22;56.04
56052;BME280;41919;42.648;23.384;2022-09-16T14:33:53;94087.06;;;25.20;56.04
56052;BME280;41919;42.648;23.384;2022-09-16T14:36:23;94085.38;;;25.24;56.20
56052;BME280;41919;42.648;23.384;2022-09-16T14:41:23;94018.84;;;24.46;56.30
56052;BME280;41919;42.648;23.384;2022-09-16T14:43:50;94062.66;;;24.59;57.17
56052;BME280;41919;42.648;23.384;2022-09-16T14:46:17;94058.53;;;24.39;57.84
56052;BME280;41919;42.648;23.384;2022-09-16T14:48:43;94024.25;;;23.96;58.45
56052;BME280;41919;42.648;23.384;2022-09-16T14:51:21;94013.44;;;23.64;59.05
56052;BME280;41919;42.648;23.384;2022-09-16T14:53:56;94071.81;;;23.94;58.96
56052;BME280;41919;42.648;23.384;2022-09-16T14:56:22;94044.34;;;23.65;59.66
56052;BME280;41919;42.648;23.384;2022-09-16T14:58:47;93993.19;;;23.49;59.12
56052;BME280;41919;42.648;23.384;2022-09-16T15:01:20;93998.63;;;23.44;60.66
56052;BME280;41919;42.648;23.384;2022-09-16T15:06:19;94081.38;;;23.95;60.58
56052;BME280;41919;42.648;23.384;2022-09-16T15:08:50;94055.84;;;23.80;60.71
56052;BME280;41919;42.648;23.384;2022-09-16T15:11:21;94041.59;;;23.84;60.45
56052;BME280;41919;42.648;23.384;2022-09-16T15:13:48;94056.88;;;23.93;60.90
56052;BME280;41919;42.648;23.384;2022-09-16T15:16:17;94077.22;;;24.16;60.59
56052;BME280;41919;42.648;23.384;2022-09-16T15:19:02;94073.03;;;24.10;60.74
56052;BME280;41919;42.648;23.384;2022-09-16T15:21:29;94082.25;;;24.04;60.61
56052;BME280;41919;42.648;23.384;2022-09-16T15:24:01;94060.53;;;23.97;61.19
56052;BME280;41919;42.648;23.384;2022-09-16T15:29:05;94062.69;;;24.09;60.28
56052;BME280;41919;42.648;23.384;2022-09-16T15:31:39;94021.59;;;23.96;60.88
56052;BME280;41919;42.648;23.384;2022-09-16T15:39:31;93987.88;;;23.49;61.98
56052;BME280;41919;42.648;23.384;2022-09-16T15:44:53;93978.19;;;23.40;62.23
56052;BME280;41919;42.648;23.384;2022-09-16T15:47:29;93971.28;;;23.25;62.17
56052;BME280;41919;42.648;23.384;2022-09-16T15:50:02;93926.75;;;22.84;62.56
56052;BME280;41919;42.648;23.384;2022-09-16T15:52:30;93995.88;;;23.08;62.86
56052;BME280;41919;42.648;23.384;2022-09-16T15:55:02;93953.38;;;22.70;63.45
56052;BME280;41919;42.648;23.384;2022-09-16T15:57:33;93996.25;;;23.01;63.43
56052;BME280;41919;42.648;23.384;2022-09-16T16:03:09;93964.16;;;22.79;63.62
56052;BME280;41919;42.648;23.384;2022-09-16T16:05:36;93975.31;;;22.95;63.39
56052;BME280;41919;42.648;23.384;2022-09-16T16:08:03;93979.25;;;22.97;63.82